Decoded Metar for LEJR (JEREZ in SPAIN) (IATA:XRY) | Meteo·Mobile Aviation Weather
aviador You're here:

LEJR Decoded Metar

JEREZ in SPAIN
Report Time2019-09-17 00:00:00
UTC Time2019-09-17 00:13:31
Flight Rules vfr VFR
WindVRB at 01 kt
Visibility9999 m
Phenomena:N/A
Clouds:N/A
Expected CloudBase > 1,200 ft AGL from Temp-Dew spread
CeilingNone
Temp21°C (ISA +6)
Dew Point18°C (83% RH)
QNH1017 hPa
Density Alt961 ft
Elevation98 ft
Report Wrong Elevation
Raw Report
LEJR 170000Z AUTO VRB01KT CAVOK 21/18 Q1017=

Extra information for LEJR:More info

Metar Taf Metar & Taf Last 4 Metars F.Rules Stats Wind Profile Meteogram Temp Stats Airport Information Weather charts Add Link Nearby VenuesMetar ALERT Operation Metar Decoded Social comments